Time;durP1;ratioP1;P1;durP2;ratioP2;P2;SDS_P1;SDS_P2;PMS_P1;PMS_P2;Temp;Humidity;BMP_temperature;BMP_pressure;BME280_temperature;BME280_humidity;BME280_pressure;Samples;Min_cycle;Max_cycle;Signal;HPM_P1;HPM_P2
2022/01/21 00:00:41;;;;;;;7.95;0.90;;;2.30;99.90;;;;;;5072374;28;20044;-77
2022/01/21 00:03:07;;;;;;;9.10;0.63;;;2.30;99.90;;;;;;5072270;28;20413;-69
2022/01/21 00:05:32;;;;;;;11.65;1.02;;;2.30;99.90;;;;;;5056541;28;20190;-76
2022/01/21 00:07:58;;;;;;;8.32;0.88;;;2.30;99.90;;;;;;5047860;28;20406;-77
2022/01/21 00:10:23;;;;;;;9.70;0.40;;;2.30;99.90;;;;;;5059152;28;20477;-76
2022/01/21 00:12:52;;;;;;;8.77;1.15;;;2.20;99.90;;;;;;5072458;28;20119;-70
2022/01/21 00:15:18;;;;;;;11.13;0.88;;;2.20;99.90;;;;;;5072764;28;20048;-76
2022/01/21 00:17:44;;;;;;;6.43;0.70;;;2.10;99.90;;;;;;5072166;28;20040;-76
2022/01/21 00:31:07;;;;;;;9.93;0.73;;;2.40;99.90;;;;;;5072313;28;20640;-74
2022/01/21 00:33:33;;;;;;;7.32;0.50;;;2.40;99.90;;;;;;5072371;28;20045;-80
2022/01/21 00:35:59;;;;;;;12.43;0.35;;;2.50;99.90;;;;;;5071665;28;20806;-80
2022/01/21 00:38:27;;;;;;;6.20;0.68;;;2.50;99.90;;;;;;5072222;28;20052;-81
2022/01/21 00:40:56;;;;;;;8.45;0.50;;;2.50;99.90;;;;;;5072134;28;20091;-78
2022/01/21 00:43:31;;;;;;;10.27;0.68;;;2.40;99.90;;;;;;5071413;28;20087;-79
2022/01/21 00:45:57;;;;;;;12.70;0.68;;;2.30;99.90;;;;;;5072346;28;20440;-69
2022/01/21 00:48:23;;;;;;;9.05;0.70;;;2.30;99.90;;;;;;5071611;28;20064;-78
2022/01/21 00:50:49;;;;;;;6.68;0.52;;;2.20;99.90;;;;;;5072109;28;20044;-77
2022/01/21 00:53:15;;;;;;;11.30;0.63;;;2.10;99.90;;;;;;5071924;28;20060;-78
2022/01/21 00:55:40;;;;;;;9.05;0.47;;;2.10;99.90;;;;;;5055712;28;20041;-79
2022/01/21 00:58:06;;;;;;;9.32;0.90;;;2.00;99.90;;;;;;5071109;28;20093;-69
2022/01/21 01:00:32;;;;;;;8.93;0.43;;;2.00;99.90;;;;;;5072032;28;20044;-79
2022/01/21 01:02:59;;;;;;;9.88;0.50;;;1.90;99.90;;;;;;5071400;28;20287;-79
2022/01/21 01:05:24;;;;;;;10.63;0.60;;;1.80;99.90;;;;;;5047919;28;20049;-81
2022/01/21 01:07:50;;;;;;;7.43;0.43;;;1.80;99.90;;;;;;5071760;28;20044;-81
2022/01/21 01:10:24;;;;;;;7.22;0.50;;;1.80;99.90;;;;;;5071924;28;20041;-70
2022/01/21 01:19:52;;;;;;;13.80;0.75;;;1.70;99.90;;;;;;5071266;28;20044;-70
2022/01/21 01:21:12;;;;;;;8.73;0.82;;;1.70;99.90;;;;;;5071193;28;20045;-79
2022/01/21 01:23:50;;;;;;;5.60;0.50;;;1.70;99.90;;;;;;5072281;28;20055;-75
2022/01/21 01:29:01;;;;;;;5.65;0.82;;;1.60;99.90;;;;;;5071379;28;20052;-80
2022/01/21 01:31:26;;;;;;;9.45;1.15;;;1.70;99.90;;;;;;5053916;28;20043;-72
2022/01/21 01:33:53;;;;;;;13.02;0.63;;;1.80;99.90;;;;;;5070644;28;20178;-79
2022/01/21 01:36:20;;;;;;;10.70;0.45;;;1.80;99.90;;;;;;5071460;28;20071;-80
2022/01/21 01:39:03;;;;;;;10.07;1.00;;;1.80;99.90;;;;;;5070999;28;20052;-72
2022/01/21 01:41:36;;;;;;;;;;;1.80;99.90;;;;;;5071788;28;20036;-79
2022/01/21 01:49:34;;;;;;;7.97;0.60;;;1.90;99.90;;;;;;5070768;28;20056;-79
2022/01/21 01:52:00;;;;;;;8.00;0.73;;;1.90;99.90;;;;;;5052319;28;20123;-72
2022/01/21 01:54:29;;;;;;;10.32;0.93;;;2.00;99.90;;;;;;5069854;28;20128;-73
2022/01/21 01:56:56;;;;;;;10.13;0.80;;;2.00;99.90;;;;;;5039341;28;20056;-75
2022/01/21 01:59:23;;;;;;;10.63;0.80;;;2.10;99.90;;;;;;5055996;28;20047;-79
2022/01/21 02:01:52;;;;;;;10.32;0.47;;;2.10;99.90;;;;;;5069297;28;20059;-79
2022/01/21 02:04:18;;;;;;;12.65;0.50;;;2.10;99.90;;;;;;5070844;28;20071;-78
2022/01/21 02:06:44;;;;;;;12.00;0.45;;;2.20;99.90;;;;;;5070272;28;20048;-82
2022/01/21 02:09:10;;;;;;;9.82;0.50;;;2.10;99.90;;;;;;5071549;28;20036;-79
2022/01/21 02:11:35;;;;;;;6.47;0.40;;;2.20;99.90;;;;;;5070840;28;20575;-78
2022/01/21 02:14:07;;;;;;;13.07;0.60;;;2.10;99.90;;;;;;5070367;28;20527;-79
2022/01/21 02:16:43;;;;;;;9.38;0.40;;;2.10;99.90;;;;;;5071618;28;20059;-79
2022/01/21 02:21:53;;;;;;;8.23;0.43;;;2.10;99.90;;;;;;5069661;28;20048;-79
2022/01/21 02:24:24;;;;;;;13.15;0.60;;;2.00;99.90;;;;;;5070146;28;20048;-79
2022/01/21 02:26:52;;;;;;;6.53;0.57;;;2.00;99.90;;;;;;5070190;28;20089;-80
2022/01/21 02:29:44;;;;;;;4.88;0.40;;;2.00;99.90;;;;;;5043115;28;20041;-80
2022/01/21 02:32:09;;;;;;;8.88;0.60;;;2.00;99.90;;;;;;5051933;28;20501;-79
2022/01/21 02:34:35;;;;;;;5.00;0.60;;;2.00;99.90;;;;;;5069918;28;20075;-74
2022/01/21 02:37:01;;;;;;;11.38;0.50;;;1.90;99.90;;;;;;5069497;28;20451;-78
2022/01/21 02:39:26;;;;;;;8.48;0.50;;;1.80;99.90;;;;;;5069657;28;20040;-82
2022/01/21 02:41:52;;;;;;;7.50;0.85;;;1.80;99.90;;;;;;5069770;28;20037;-79
2022/01/21 02:44:18;;;;;;;10.25;0.40;;;1.70;99.90;;;;;;5069506;28;20045;-80
2022/01/21 02:46:46;;;;;;;7.82;0.63;;;1.60;99.90;;;;;;5069753;28;20500;-78
2022/01/21 02:49:13;;;;;;;4.88;0.45;;;1.50;99.90;;;;;;5070109;28;20053;-77
2022/01/21 02:51:39;;;;;;;8.18;0.40;;;1.50;99.90;;;;;;5069272;28;20053;-77
2022/01/21 02:54:04;;;;;;;6.35;0.47;;;1.50;99.90;;;;;;5070275;28;20451;-78
2022/01/21 02:56:32;;;;;;;9.45;0.77;;;1.50;99.90;;;;;;5069011;28;20045;-77
2022/01/21 02:58:58;;;;;;;7.60;0.52;;;1.60;99.90;;;;;;5069334;28;20918;-73
2022/01/21 03:01:25;;;;;;;7.72;0.30;;;1.50;99.90;;;;;;5070027;28;20041;-77
2022/01/21 03:03:51;;;;;;;10.38;0.50;;;1.60;99.90;;;;;;5068260;28;20127;-79
2022/01/21 03:06:19;;;;;;;5.15;0.50;;;1.50;99.90;;;;;;5069476;28;20170;-73
2022/01/21 03:08:47;;;;;;;5.93;0.32;;;1.50;99.90;;;;;;5069464;28;20405;-74
2022/01/21 03:11:13;;;;;;;5.80;0.43;;;1.40;99.90;;;;;;5069004;28;20083;-81
2022/01/21 03:13:43;;;;;;;8.13;0.50;;;1.30;99.90;;;;;;5069578;28;20390;-81
2022/01/21 03:16:08;;;;;;;11.70;0.60;;;1.20;99.90;;;;;;5069874;28;20044;-81
2022/01/21 03:18:34;;;;;;;7.50;0.40;;;1.10;99.90;;;;;;5052070;28;20043;-81
2022/01/21 03:21:00;;;;;;;5.82;0.35;;;1.00;99.90;;;;;;5069615;28;20044;-81
2022/01/21 03:23:28;;;;;;;8.05;0.40;;;1.00;99.90;;;;;;5052902;28;20044;-72
2022/01/21 03:25:53;;;;;;;6.13;0.52;;;0.90;99.90;;;;;;5068375;28;20041;-82
2022/01/21 03:28:19;;;;;;;8.60;0.52;;;0.90;99.90;;;;;;5052594;28;20043;-81
2022/01/21 03:30:45;;;;;;;7.00;0.40;;;0.80;99.90;;;;;;5069020;28;20072;-80
2022/01/21 03:33:10;;;;;;;6.18;0.20;;;0.80;99.90;;;;;;5052256;28;20094;-80
2022/01/21 03:35:36;;;;;;;5.13;0.32;;;0.80;99.90;;;;;;5052481;28;20036;-76
2022/01/21 03:38:03;;;;;;;4.65;0.40;;;0.80;99.90;;;;;;5069496;28;20083;-79
2022/01/21 03:40:29;;;;;;;9.60;0.40;;;0.70;99.90;;;;;;5068776;28;20041;-77
2022/01/21 03:42:55;;;;;;;7.72;0.40;;;0.70;99.90;;;;;;5052677;28;20040;-76
2022/01/21 03:45:21;;;;;;;7.20;0.50;;;0.70;99.90;;;;;;5068962;28;20109;-77
2022/01/21 03:47:46;;;;;;;11.50;0.70;;;0.70;99.90;;;;;;5068545;28;20378;-71
2022/01/21 03:50:32;;;;;;;12.88;0.40;;;0.80;99.90;;;;;;5052099;28;20052;-80
2022/01/21 03:53:03;;;;;;;11.75;0.52;;;0.90;99.90;;;;;;5069566;28;20119;-73
2022/01/21 03:55:30;;;;;;;14.07;0.95;;;0.90;99.90;;;;;;5052659;28;20056;-80
2022/01/21 03:57:57;;;;;;;12.73;0.70;;;1.00;99.90;;;;;;5068755;28;20120;-71
2022/01/21 04:00:35;;;;;;;8.60;0.90;;;1.00;99.90;;;;;;5068331;28;20488;-80
2022/01/21 04:03:03;;;;;;;7.60;0.68;;;1.10;99.90;;;;;;5051347;28;20443;-72
2022/01/21 04:05:29;;;;;;;7.05;0.40;;;1.00;99.90;;;;;;5069257;28;20523;-71
2022/01/21 04:07:55;;;;;;;9.95;0.47;;;0.90;99.90;;;;;;5051191;28;20123;-75
2022/01/21 04:10:21;;;;;;;10.30;0.70;;;0.90;99.90;;;;;;5052080;28;20514;-84
2022/01/21 04:12:46;;;;;;;10.82;0.60;;;0.80;99.90;;;;;;5069321;28;20131;-83
2022/01/21 04:15:13;;;;;;;6.88;0.40;;;0.80;99.90;;;;;;5068958;28;20131;-69
2022/01/21 04:17:38;;;;;;;8.70;0.40;;;0.80;99.90;;;;;;5056617;28;20492;-84
2022/01/21 04:20:06;;;;;;;10.05;0.60;;;0.80;99.90;;;;;;5072576;28;20059;-75
2022/01/21 04:22:31;;;;;;;4.97;0.70;;;0.80;99.90;;;;;;5071915;28;20049;-82
2022/01/21 04:24:59;;;;;;;6.85;0.30;;;0.80;99.90;;;;;;5072360;28;20500;-74
2022/01/21 04:27:25;;;;;;;8.75;0.30;;;0.90;99.90;;;;;;5072637;28;20059;-83
2022/01/21 04:29:50;;;;;;;9.88;0.40;;;0.80;99.90;;;;;;5071269;28;20041;-83
2022/01/21 04:32:16;;;;;;;7.60;0.30;;;0.90;99.90;;;;;;5072588;28;20119;-68
2022/01/21 04:34:41;;;;;;;11.57;0.40;;;0.90;99.90;;;;;;5054305;28;20048;-80
2022/01/21 04:37:10;;;;;;;6.47;0.38;;;0.90;99.90;;;;;;5072200;28;20055;-72
2022/01/21 04:39:42;;;;;;;3.72;0.20;;;0.90;99.90;;;;;;5040154;28;20048;-69
2022/01/21 04:47:39;;;;;;;3.90;0.30;;;1.00;99.90;;;;;;5072095;28;20052;-79
2022/01/21 04:50:11;;;;;;;10.77;0.32;;;1.00;99.90;;;;;;5071463;28;20044;-68
2022/01/21 04:52:36;;;;;;;8.05;0.52;;;1.10;99.90;;;;;;5050512;28;20103;-79
2022/01/21 04:55:03;;;;;;;3.50;0.30;;;1.10;99.90;;;;;;5061816;28;20504;-80
2022/01/21 04:57:29;;;;;;;6.50;0.28;;;1.20;99.90;;;;;;5051103;28;20052;-80
2022/01/21 04:59:55;;;;;;;5.88;0.20;;;1.20;99.90;;;;;;5061257;28;20045;-75
2022/01/21 05:02:22;;;;;;;6.38;0.30;;;1.30;99.90;;;;;;5054437;28;20040;-82
2022/01/21 05:04:48;;;;;;;8.15;0.25;;;1.40;99.90;;;;;;5055040;28;20067;-83
2022/01/21 05:07:20;;;;;;;8.75;0.63;;;1.40;99.90;;;;;;5071597;28;20476;-83
2022/01/21 05:09:45;;;;;;;7.97;0.63;;;1.40;99.90;;;;;;5072003;28;20397;-71
2022/01/21 05:12:17;;;;;;;8.00;0.20;;;1.50;99.90;;;;;;5071280;28;20045;-84
2022/01/21 05:15:05;;;;;;;7.72;0.30;;;1.50;99.90;;;;;;5052027;28;20053;-84
2022/01/21 05:17:31;;;;;;;7.70;0.30;;;1.40;99.90;;;;;;5056391;28;20057;-84
2022/01/21 05:19:57;;;;;;;10.30;0.40;;;1.40;99.90;;;;;;5071736;28;20491;-82
2022/01/21 05:22:22;;;;;;;8.75;0.45;;;1.40;99.90;;;;;;5071136;28;20131;-81
2022/01/21 05:24:49;;;;;;;9.13;0.30;;;1.30;99.90;;;;;;5071058;28;20132;-82
2022/01/21 05:27:15;;;;;;;7.13;0.60;;;1.30;99.90;;;;;;5070218;28;20043;-78
2022/01/21 05:29:40;;;;;;;7.97;0.38;;;1.30;99.90;;;;;;5071570;28;20036;-80
2022/01/21 05:32:07;;;;;;;8.63;0.30;;;1.30;99.90;;;;;;5070237;28;20090;-80
2022/01/21 05:34:33;;;;;;;13.98;0.43;;;1.30;99.90;;;;;;5071221;28;20056;-80
2022/01/21 05:36:59;;;;;;;7.03;0.20;;;1.20;99.90;;;;;;5071036;28;20378;-80
2022/01/21 05:39:24;;;;;;;6.93;0.20;;;1.20;99.90;;;;;;5070409;28;20123;-82
2022/01/21 05:41:52;;;;;;;5.97;0.30;;;1.20;99.90;;;;;;5071192;28;20041;-78
2022/01/21 05:46:57;;;;;;;10.65;0.47;;;1.30;99.90;;;;;;5070259;28;20088;-77
2022/01/21 05:49:24;;;;;;;5.28;0.40;;;1.40;99.90;;;;;;5074273;28;20058;-77
2022/01/21 05:51:53;;;;;;;5.18;0.40;;;1.50;99.90;;;;;;5074263;28;20130;-79
2022/01/21 05:54:24;;;;;;;5.95;0.20;;;1.50;99.90;;;;;;5073592;28;20047;-78
2022/01/21 05:56:50;;;;;;;9.57;0.73;;;1.60;99.90;;;;;;5073830;28;20054;-79
2022/01/21 05:59:16;;;;;;;13.32;0.82;;;1.60;99.90;;;;;;5057320;28;20733;-69
2022/01/21 06:01:42;;;;;;;12.15;0.85;;;1.60;99.90;;;;;;5073762;28;20048;-80
2022/01/21 06:04:09;;;;;;;6.90;0.38;;;1.60;99.90;;;;;;5074305;28;20381;-70
2022/01/21 06:06:35;;;;;;;8.00;0.40;;;1.50;99.90;;;;;;5073482;28;20060;-79
2022/01/21 06:09:02;;;;;;;6.30;0.35;;;1.50;99.90;;;;;;5074311;28;20476;-79
2022/01/21 06:11:28;;;;;;;15.07;0.40;;;1.50;99.90;;;;;;5073258;28;20472;-79
2022/01/21 06:13:53;;;;;;;9.50;0.68;;;1.40;99.90;;;;;;5072427;28;20044;-78
2022/01/21 06:16:19;;;;;;;8.23;0.32;;;1.50;99.90;;;;;;5073809;28;20445;-75
2022/01/21 06:18:45;;;;;;;12.95;0.70;;;1.40;99.90;;;;;;5073227;28;20048;-79
2022/01/21 06:21:11;;;;;;;8.52;0.30;;;1.40;99.90;;;;;;5073317;28;20377;-79
2022/01/21 06:23:37;;;;;;;5.70;0.40;;;1.40;99.90;;;;;;5073378;28;20123;-79
2022/01/21 06:26:03;;;;;;;6.32;0.40;;;1.50;99.90;;;;;;5056955;28;20044;-81
2022/01/21 06:28:29;;;;;;;8.45;0.52;;;1.40;99.90;;;;;;5072845;28;20378;-80
2022/01/21 06:30:54;;;;;;;8.13;0.50;;;1.50;99.90;;;;;;5057107;28;20413;-73
2022/01/21 06:33:20;;;;;;;6.80;0.40;;;1.50;99.90;;;;;;5056102;28;20084;-81
2022/01/21 06:35:51;;;;;;;13.95;0.93;;;1.50;99.90;;;;;;5056202;28;20036;-73
2022/01/21 06:38:18;;;;;;;7.78;0.30;;;1.50;99.90;;;;;;5047449;28;20056;-80
2022/01/21 06:40:43;;;;;;;14.85;0.73;;;1.50;99.90;;;;;;5073456;28;20044;-81
2022/01/21 06:43:10;;;;;;;11.90;0.68;;;1.60;99.90;;;;;;5072816;28;20396;-79
2022/01/21 06:45:36;;;;;;;5.85;0.50;;;1.70;99.90;;;;;;5073649;28;20055;-71
2022/01/21 06:48:04;;;;;;;10.68;0.52;;;1.70;99.90;;;;;;5072828;28;20493;-80
2022/01/21 06:50:31;;;;;;;8.32;0.40;;;1.60;99.90;;;;;;5072547;28;20052;-79
2022/01/21 06:52:56;;;;;;;10.85;0.40;;;1.60;99.90;;;;;;5047148;28;20038;-79
2022/01/21 06:55:22;;;;;;;13.32;0.60;;;1.60;99.90;;;;;;5073092;28;20419;-82
2022/01/21 06:57:48;;;;;;;7.28;0.20;;;1.50;99.90;;;;;;5072384;28;20377;-77
2022/01/21 07:00:18;;;;;;;6.03;0.63;;;1.50;99.90;;;;;;5072541;28;20393;-80
2022/01/21 07:02:44;;;;;;;10.50;0.70;;;1.40;99.90;;;;;;5048872;28;20047;-79
2022/01/21 07:05:10;;;;;;;12.18;0.45;;;1.40;99.90;;;;;;5072650;28;20511;-80
2022/01/21 07:07:36;;;;;;;12.25;0.30;;;1.40;99.90;;;;;;5072085;28;20119;-70
2022/01/21 07:10:04;;;;;;;7.32;0.85;;;1.30;99.90;;;;;;5072562;28;20096;-81
2022/01/21 07:12:30;;;;;;;12.70;0.82;;;1.20;99.90;;;;;;5037210;28;20048;-81
2022/01/21 07:14:55;;;;;;;8.07;0.40;;;1.30;99.90;;;;;;5063324;28;20412;-74
2022/01/21 07:17:21;;;;;;;9.70;1.40;;;1.30;99.90;;;;;;5055297;28;20051;-79
2022/01/21 07:19:47;;;;;;;7.63;0.93;;;1.30;99.90;;;;;;5072906;28;20043;-67
2022/01/21 07:22:13;;;;;;;9.05;0.40;;;1.40;99.90;;;;;;5072987;28;20074;-82
2022/01/21 07:24:39;;;;;;;8.20;0.60;;;1.40;99.90;;;;;;5072429;28;20496;-82
2022/01/21 07:27:04;;;;;;;4.68;0.40;;;1.40;99.90;;;;;;5072828;28;20048;-72
2022/01/21 07:29:30;;;;;;;6.53;0.40;;;1.30;99.90;;;;;;5072708;28;20398;-77
2022/01/21 07:31:56;;;;;;;10.65;0.60;;;1.30;99.90;;;;;;5071551;28;20076;-77
2022/01/21 07:34:23;;;;;;;5.50;0.52;;;1.30;99.90;;;;;;5072717;28;20039;-70
2022/01/21 07:36:49;;;;;;;9.77;0.43;;;1.40;99.90;;;;;;5072406;28;20036;-78
2022/01/21 07:39:15;;;;;;;7.85;0.68;;;1.50;99.90;;;;;;5072142;28;20047;-78
2022/01/21 07:41:40;;;;;;;5.72;0.40;;;1.40;99.90;;;;;;5072372;28;20473;-79
2022/01/21 07:44:06;;;;;;;9.10;0.50;;;1.50;99.90;;;;;;5050230;28;20045;-77
2022/01/21 07:46:32;;;;;;;6.82;0.38;;;1.40;99.90;;;;;;5036656;28;20041;-78
2022/01/21 07:48:59;;;;;;;9.05;0.60;;;1.40;99.90;;;;;;5070597;28;20063;-82
2022/01/21 07:51:25;;;;;;;11.23;0.73;;;1.40;99.90;;;;;;5074358;28;20143;-78
2022/01/21 07:53:51;;;;;;;5.93;0.50;;;1.40;99.90;;;;;;5075796;28;20044;-80
2022/01/21 07:56:17;;;;;;;10.48;0.75;;;1.50;99.90;;;;;;5076162;28;20119;-80
2022/01/21 07:58:43;;;;;;;9.40;0.40;;;1.60;99.90;;;;;;5076544;28;20055;-86
2022/01/21 08:01:09;;;;;;;13.40;0.50;;;1.60;99.90;;;;;;5075874;28;20040;-84
2022/01/21 08:03:35;;;;;;;10.82;0.60;;;1.60;99.90;;;;;;5075851;28;20451;-84
2022/01/21 08:06:00;;;;;;;7.88;0.50;;;1.70;99.90;;;;;;5075724;28;20127;-83
2022/01/21 08:08:26;;;;;;;7.20;0.57;;;1.70;99.90;;;;;;5075975;28;20083;-69
2022/01/21 08:10:53;;;;;;;7.32;0.50;;;1.80;99.90;;;;;;5076406;28;20458;-84
2022/01/21 08:13:19;;;;;;;8.73;0.63;;;1.80;99.90;;;;;;5042020;28;20079;-83
2022/01/21 08:15:45;;;;;;;14.10;1.00;;;1.80;99.90;;;;;;5051371;28;20054;-83
2022/01/21 08:18:12;;;;;;;4.97;0.50;;;1.80;99.90;;;;;;5058537;28;20396;-83
2022/01/21 08:20:37;;;;;;;5.15;0.20;;;1.80;99.90;;;;;;5058253;28;20051;-81
2022/01/21 08:23:03;;;;;;;7.93;0.55;;;1.70;99.90;;;;;;5075800;28;20040;-86
2022/01/21 08:25:29;;;;;;;9.43;0.40;;;1.70;99.90;;;;;;5075851;28;20391;-84
2022/01/21 08:27:54;;;;;;;10.40;0.63;;;1.60;99.90;;;;;;5075847;28;20056;-85
2022/01/21 08:30:20;;;;;;;8.68;0.45;;;1.50;99.90;;;;;;5075765;28;20040;-86
2022/01/21 08:32:46;;;;;;;11.25;0.68;;;1.50;99.90;;;;;;5058519;28;20040;-79
2022/01/21 08:35:12;;;;;;;8.27;0.80;;;1.50;99.90;;;;;;5074886;28;20074;-80
2022/01/21 08:37:39;;;;;;;5.70;1.00;;;1.50;99.90;;;;;;5075741;28;20047;-80
2022/01/21 08:40:06;;;;;;;10.10;0.85;;;1.60;99.90;;;;;;5075583;28;20036;-78
2022/01/21 08:42:31;;;;;;;6.35;0.55;;;1.70;99.90;;;;;;5074151;28;20040;-80
2022/01/21 08:44:57;;;;;;;11.80;1.30;;;1.90;99.90;;;;;;5074356;28;20506;-79
2022/01/21 08:47:23;;;;;;;14.27;0.70;;;2.00;99.90;;;;;;5071993;28;20060;-80
2022/01/21 08:49:49;;;;;;;16.00;1.13;;;2.10;99.90;;;;;;5070954;28;20061;-80
2022/01/21 08:52:20;;;;;;;15.07;1.48;;;2.20;99.90;;;;;;5052464;28;20134;-80
2022/01/21 08:54:47;;;;;;;11.85;1.42;;;2.30;99.90;;;;;;5071964;28;20056;-70
2022/01/21 08:57:14;;;;;;;14.88;1.67;;;2.40;99.90;;;;;;5071364;28;20045;-80
2022/01/21 08:59:40;;;;;;;12.40;0.70;;;2.60;99.90;;;;;;5071876;28;20470;-80
2022/01/21 09:02:05;;;;;;;9.93;0.77;;;2.70;99.90;;;;;;5069719;28;20080;-77
2022/01/21 09:04:32;;;;;;;10.10;1.33;;;2.90;99.90;;;;;;5071790;28;20052;-80
2022/01/21 09:06:58;;;;;;;11.52;1.15;;;3.00;99.90;;;;;;5071708;28;20052;-80
2022/01/21 09:09:25;;;;;;;12.57;1.63;;;3.10;99.90;;;;;;5071194;28;20045;-80
2022/01/21 09:11:53;;;;;;;6.60;0.77;;;3.30;99.90;;;;;;5071239;28;20037;-81
2022/01/21 09:14:18;;;;;;;7.43;1.00;;;3.40;99.90;;;;;;5071831;28;20509;-79
2022/01/21 09:16:44;;;;;;;12.77;1.17;;;3.40;99.90;;;;;;5070876;28;20111;-79
2022/01/21 09:19:10;;;;;;;6.30;1.27;;;3.60;99.90;;;;;;5071927;28;20131;-80
2022/01/21 09:21:38;;;;;;;9.38;0.80;;;3.60;99.90;;;;;;5070419;28;20055;-80
2022/01/21 09:24:05;;;;;;;8.45;0.65;;;3.60;99.90;;;;;;5071405;28;20087;-80
2022/01/21 09:26:31;;;;;;;10.90;0.70;;;3.60;99.90;;;;;;5070478;28;20101;-81
2022/01/21 09:28:58;;;;;;;13.27;0.77;;;3.60;99.90;;;;;;5070981;28;20060;-69
2022/01/21 09:31:25;;;;;;;7.18;0.57;;;3.70;99.90;;;;;;5070583;28;20037;-81
2022/01/21 09:33:51;;;;;;;6.97;0.50;;;3.70;99.90;;;;;;5054299;28;20051;-81
2022/01/21 09:36:18;;;;;;;10.93;1.05;;;3.70;99.90;;;;;;5054530;28;20028;-80
2022/01/21 09:38:45;;;;;;;15.07;1.20;;;3.80;99.90;;;;;;5070493;28;20048;-80
2022/01/21 09:41:11;;;;;;;7.07;0.73;;;3.80;99.90;;;;;;5069213;28;20041;-81
2022/01/21 09:43:39;;;;;;;5.03;0.65;;;3.80;99.90;;;;;;5063398;28;20029;-69
2022/01/21 09:46:07;;;;;;;12.45;1.15;;;3.90;99.90;;;;;;5070001;28;20103;-79
2022/01/21 09:48:48;;;;;;;12.15;0.98;;;4.00;99.90;;;;;;5071010;28;20524;-80
2022/01/21 09:51:14;;;;;;;11.75;0.82;;;4.10;99.90;;;;;;5083886;28;20139;-80
2022/01/21 09:53:42;;;;;;;9.57;0.75;;;4.20;99.90;;;;;;5069352;28;20049;-70
2022/01/21 09:56:07;;;;;;;7.72;1.00;;;4.30;99.90;;;;;;5070477;28;20562;-80
2022/01/21 09:58:33;;;;;;;11.20;0.98;;;4.40;99.90;;;;;;5069989;28;20088;-80
2022/01/21 10:01:05;;;;;;;8.35;0.55;;;4.40;99.90;;;;;;5053930;28;20052;-81
2022/01/21 10:03:31;;;;;;;8.98;0.98;;;4.50;99.90;;;;;;5070964;28;20036;-80
2022/01/21 10:05:57;;;;;;;9.50;0.98;;;4.40;99.90;;;;;;5069006;28;20049;-75
2022/01/21 10:08:24;;;;;;;15.43;1.10;;;4.50;99.90;;;;;;5070621;28;20123;-80
2022/01/21 10:10:50;;;;;;;12.98;2.10;;;4.60;99.90;;;;;;5070503;28;20040;-80
2022/01/21 10:13:19;;;;;;;13.63;1.88;;;4.60;99.90;;;;;;5069333;28;20439;-69
2022/01/21 10:15:46;;;;;;;13.10;1.85;;;4.80;99.90;;;;;;5068778;28;20064;-80
2022/01/21 10:18:15;;;;;;;14.15;2.17;;;4.80;99.90;;;;;;5068022;28;20560;-80
2022/01/21 10:21:13;;;;;;;13.57;2.42;;;4.90;99.90;;;;;;5053783;28;20500;-81
2022/01/21 10:23:42;;;;;;;16.13;2.03;;;5.00;99.90;;;;;;5070450;28;20431;-80
2022/01/21 10:26:10;;;;;;;14.90;2.42;;;5.10;99.90;;;;;;5070573;28;20435;-80
2022/01/21 10:28:41;;;;;;;15.70;2.33;;;5.20;99.90;;;;;;5070664;28;20040;-69
2022/01/21 10:31:18;;;;;;;11.93;2.38;;;5.30;99.90;;;;;;5070746;28;20045;-69
2022/01/21 10:33:51;;;;;;;16.25;2.88;;;5.30;99.90;;;;;;5069452;28;20044;-81
2022/01/21 10:36:28;;;;;;;13.45;2.25;;;5.50;99.90;;;;;;5054106;28;20048;-76
2022/01/21 10:39:11;;;;;;;13.20;2.33;;;5.60;99.90;;;;;;5069204;28;20400;-80
2022/01/21 10:41:39;;;;;;;;;;;5.70;99.90;;;;;;5070930;28;20080;-80
2022/01/21 10:44:11;;;;;;;10.63;1.73;;;5.80;99.90;;;;;;5053269;28;20475;-74
2022/01/21 10:46:38;;;;;;;18.05;2.40;;;5.90;99.90;;;;;;5069325;28;20041;-81
2022/01/21 10:49:12;;;;;;;11.88;1.73;;;5.90;99.90;;;;;;5069854;28;20041;-73
2022/01/21 10:51:40;;;;;;;11.27;2.30;;;5.90;99.90;;;;;;5070526;28;20056;-80
2022/01/21 10:54:12;;;;;;;11.30;1.52;;;6.10;99.90;;;;;;5069583;28;20045;-72
2022/01/21 10:56:38;;;;;;;13.87;2.07;;;6.20;99.90;;;;;;5046089;28;20436;-79
2022/01/21 10:59:03;;;;;;;14.13;1.30;;;6.30;99.90;;;;;;5070131;28;20564;-78
2022/01/21 11:01:30;;;;;;;10.70;1.50;;;6.40;99.90;;;;;;5069054;28;20136;-79
2022/01/21 11:04:14;;;;;;;12.70;1.35;;;6.60;99.90;;;;;;5069827;28;20489;-71
2022/01/21 11:06:55;;;;;;;10.38;0.80;;;6.80;99.90;;;;;;5069729;28;20041;-79
2022/01/21 11:09:26;;;;;;;8.13;0.80;;;6.90;99.90;;;;;;5071396;28;20109;-80
2022/01/21 11:12:16;;;;;;;9.52;0.73;;;7.00;99.90;;;;;;5069577;28;20045;-80
2022/01/21 11:15:04;;;;;;;9.57;0.90;;;7.00;99.90;;;;;;5052207;28;20078;-80
2022/01/21 11:17:31;;;;;;;9.52;0.70;;;7.10;99.90;;;;;;5068925;28;20050;-79
2022/01/21 11:20:15;;;;;;;11.20;1.23;;;7.10;99.90;;;;;;5069634;28;20124;-76
2022/01/21 11:22:56;;;;;;;13.35;1.20;;;7.20;99.90;;;;;;5052314;28;20040;-69
2022/01/21 11:25:45;;;;;;;16.13;1.27;;;7.10;99.90;;;;;;5048780;28;20482;-72
2022/01/21 11:28:13;;;;;;;11.63;0.73;;;7.20;99.90;;;;;;5058481;28;20033;-79
2022/01/21 11:30:40;;;;;;;9.43;0.52;;;7.20;99.90;;;;;;5047121;28;20056;-74
2022/01/21 11:33:06;;;;;;;7.88;0.68;;;7.20;99.90;;;;;;5069021;28;20453;-70
2022/01/21 11:35:32;;;;;;;9.55;0.70;;;7.20;99.90;;;;;;5067763;28;20094;-80
2022/01/21 11:38:01;;;;;;;8.90;0.70;;;7.10;99.90;;;;;;5068940;28;20044;-72
2022/01/21 11:40:27;;;;;;;4.05;0.65;;;7.10;99.90;;;;;;5063723;28;20511;-80
2022/01/21 11:42:54;;;;;;;17.40;1.02;;;7.10;99.90;;;;;;5050916;28;20051;-81
2022/01/21 11:50:38;;;;;;;10.40;0.70;;;7.10;99.90;;;;;;5069062;28;20063;-80
2022/01/21 11:53:07;;;;;;;10.60;1.10;;;7.10;99.90;;;;;;5052299;28;20040;-80
2022/01/21 11:55:45;;;;;;;9.25;0.93;;;7.10;99.90;;;;;;5067237;28;20538;-82
2022/01/21 11:58:22;;;;;;;8.48;0.60;;;7.10;99.90;;;;;;5068622;28;20393;-82
2022/01/21 12:00:50;;;;;;;11.07;0.73;;;7.10;99.90;;;;;;5068859;28;20050;-78
2022/01/21 12:03:22;;;;;;;11.15;0.60;;;7.10;99.90;;;;;;5068790;28;20036;-71
2022/01/21 12:05:49;;;;;;;7.93;0.50;;;7.10;99.90;;;;;;5068986;28;20523;-78
2022/01/21 12:08:35;;;;;;;9.18;0.50;;;7.10;99.90;;;;;;5052273;28;20043;-74
2022/01/21 12:11:09;;;;;;;8.13;0.80;;;7.00;99.90;;;;;;5038983;28;20114;-71
2022/01/21 12:13:35;;;;;;;8.50;0.50;;;7.00;99.90;;;;;;5069462;28;20084;-76
2022/01/21 12:21:33;;;;;;;11.77;0.50;;;7.00;99.90;;;;;;5045677;28;20481;-78
2022/01/21 12:23:59;;;;;;;12.65;0.75;;;7.00;99.90;;;;;;5051596;28;20048;-78
2022/01/21 12:26:32;;;;;;;6.20;0.77;;;7.10;99.90;;;;;;5068226;28;20036;-71
2022/01/21 12:28:58;;;;;;;7.57;0.50;;;7.10;99.90;;;;;;5068956;28;20048;-78
2022/01/21 12:31:54;;;;;;;8.43;0.80;;;7.10;99.90;;;;;;5068005;28;20043;-78
2022/01/21 12:34:20;;;;;;;8.48;0.38;;;7.10;99.90;;;;;;5049094;28;20041;-78
2022/01/21 12:36:54;;;;;;;5.88;0.32;;;7.10;99.90;;;;;;5062731;28;20040;-79
2022/01/21 12:39:43;;;;;;;9.95;0.77;;;7.10;99.90;;;;;;5071993;28;20051;-79
2022/01/21 12:42:21;;;;;;;6.95;0.50;;;7.20;99.90;;;;;;5072239;28;20052;-79
2022/01/21 12:45:05;;;;;;;11.35;0.75;;;7.20;99.90;;;;;;5072375;28;20493;-79
2022/01/21 12:47:39;;;;;;;8.80;1.00;;;7.20;99.90;;;;;;5071150;28;20417;-78
2022/01/21 12:50:27;;;;;;;10.13;0.70;;;7.30;99.90;;;;;;5072626;28;20052;-73
2022/01/21 12:52:57;;;;;;;8.32;0.70;;;7.30;99.90;;;;;;5070350;28;20515;-76
2022/01/21 12:58:17;;;;;;;;;;;7.30;99.90;;;;;;5052535;28;20501;-71
2022/01/21 13:00:44;;;;;;;11.50;1.10;;;7.30;99.90;;;;;;5053302;28;19925;-78
2022/01/21 13:03:31;;;;;;;7.88;0.93;;;7.30;99.90;;;;;;5069003;28;20127;-78
2022/01/21 13:06:24;;;;;;;12.10;0.90;;;7.30;99.90;;;;;;5055153;28;20041;-77
2022/01/21 13:09:17;;;;;;;13.18;1.17;;;7.30;99.90;;;;;;5052709;28;20052;-78
2022/01/21 13:11:58;;;;;;;8.48;0.85;;;7.30;99.90;;;;;;5043629;28;20048;-78
2022/01/21 13:17:01;;;;;;;12.30;1.17;;;7.30;99.90;;;;;;5071824;28;20080;-77
2022/01/21 13:19:31;;;;;;;11.38;1.02;;;7.30;99.90;;;;;;5071745;28;20048;-77
2022/01/21 13:21:57;;;;;;;9.13;0.70;;;7.30;99.90;;;;;;5071054;28;20044;-78
2022/01/21 13:24:28;;;;;;;11.85;1.23;;;7.30;99.90;;;;;;5054912;28;20048;-73
2022/01/21 13:26:55;;;;;;;12.25;0.95;;;7.20;99.90;;;;;;5071032;28;20068;-79
2022/01/21 13:29:33;;;;;;;12.75;1.20;;;7.20;99.90;;;;;;5070868;28;20072;-72
2022/01/21 13:32:00;;;;;;;10.55;1.20;;;7.20;99.90;;;;;;5071510;28;20518;-76
2022/01/21 13:34:28;;;;;;;10.63;1.05;;;7.20;99.90;;;;;;5071294;28;20036;-77
2022/01/21 13:36:57;;;;;;;15.45;1.42;;;7.20;99.90;;;;;;5070915;28;20044;-78
2022/01/21 13:39:37;;;;;;;9.35;0.80;;;7.30;99.90;;;;;;5071180;28;20048;-77
2022/01/21 13:42:17;;;;;;;8.85;0.60;;;7.30;99.90;;;;;;5053924;28;20049;-78
2022/01/21 13:44:49;;;;;;;12.57;1.10;;;7.30;99.90;;;;;;5071035;28;20165;-78
2022/01/21 13:47:34;;;;;;;11.82;0.95;;;7.30;99.90;;;;;;5073379;28;20066;-73
2022/01/21 13:50:24;;;;;;;5.63;0.60;;;7.30;99.90;;;;;;5072750;28;20044;-77
2022/01/21 13:53:05;;;;;;;10.15;1.10;;;7.40;99.90;;;;;;5074228;28;20040;-77